首页
METAR-TAF:

METAR-TAF

机场 :

格倫興, 瑞士

纬度: 47-10-53N, 经度: 007-24-59E, 海拔: 430米

当前天气观测

该预报发布于39分钟前的00:20 UTC
风速4节,风向西
温度 3°C
湿度 100%
气压 1006 hPa
能见度10公里或以上
多云层高于900英尺
小雨

METAR: LSZG 180020Z AUTO 26004KT 9999 -RA BKN009 03/03 Q1006

时间: 01:59 (00:59 UTC)

预报

该预报发布于10小时和34分钟前的14:25 UTC
预报有效从17日的 15点(UTC)到 17日的 24点(UTC)
风速4节,风向西南
能見度: 8000
散云层高于800英尺
多云层高于5000英尺
多云层高于7000英尺
小雨
几率 40% :
短暂存在
从 17日的 17点(UTC)到 17日的 24点(UTC)
多云层高于800英尺

TAF: LSZG 171425Z 1715/1724 22004KT 8000 -RA SCT008 BKN050 BKN070 PROB40 TEMPO 1717/1724 BKN008

超过4000个机场的气象观测和天气预报(METAR&TAF报告)。

可查询的气象台以黄色和红色小点在地图上表示。

将鼠标移到小点上方,可查看气象台名称。

然后点击查看天气观测和预报。

如需切换地图:点击带黑十字的绿色按钮放大地图;点击带横线的绿色按钮缩小地图;或者点击绿色箭头查看邻近地区的地图。


METAR-TAF: